createdAt,value
2022-07-28T00:00:14.363Z,68.60
2022-07-28T00:02:40.612Z,68.60
2022-07-28T00:05:07.282Z,68.70
2022-07-28T00:07:34.272Z,69.00
2022-07-28T00:10:00.959Z,68.90
2022-07-28T00:12:27.385Z,68.90
2022-07-28T00:14:53.559Z,68.90
2022-07-28T00:17:19.611Z,68.90
2022-07-28T00:19:46.028Z,69.60
2022-07-28T00:22:12.384Z,69.10
2022-07-28T00:24:38.504Z,69.40
2022-07-28T00:27:06.628Z,69.50
2022-07-28T00:29:49.743Z,69.30
2022-07-28T00:32:17.915Z,69.40
2022-07-28T00:34:44.242Z,69.50
2022-07-28T00:37:13.425Z,69.70
2022-07-28T00:39:41.277Z,69.90
2022-07-28T00:42:07.497Z,69.90
2022-07-28T00:44:33.747Z,69.90
2022-07-28T00:47:00.017Z,69.90
2022-07-28T00:49:26.358Z,70.30
2022-07-28T00:51:52.825Z,70.20
2022-07-28T00:54:19.261Z,70.40
2022-07-28T00:56:45.342Z,70.60
2022-07-28T00:59:11.746Z,70.80
2022-07-28T01:01:37.914Z,71.00
2022-07-28T01:04:04.632Z,71.20
2022-07-28T01:06:50.500Z,71.30
2022-07-28T01:09:29.919Z,71.50
2022-07-28T01:12:14.546Z,71.60
2022-07-28T01:14:55.677Z,71.70
2022-07-28T01:17:47.407Z,71.90
2022-07-28T01:20:13.490Z,72.10
2022-07-28T01:23:11.118Z,71.80
2022-07-28T01:26:04.021Z,72.10
2022-07-28T01:28:40.525Z,72.40
2022-07-28T01:31:11.302Z,72.80
2022-07-28T01:33:50.549Z,72.80
2022-07-28T01:36:22.100Z,73.10
2022-07-28T01:38:48.383Z,73.00
2022-07-28T01:41:19.126Z,73.00
2022-07-28T01:44:05.251Z,73.00
2022-07-28T01:46:32.821Z,73.40
2022-07-28T01:49:00.386Z,73.40
2022-07-28T01:51:29.865Z,73.70
2022-07-28T01:53:59.452Z,74.00
2022-07-28T01:56:27.931Z,74.20
2022-07-28T01:58:55.650Z,74.30
2022-07-28T02:01:24.704Z,74.30
2022-07-28T02:03:53.306Z,75.20
2022-07-28T02:06:21.558Z,74.70
2022-07-28T02:08:50.913Z,74.80
2022-07-28T02:11:35.776Z,74.70
2022-07-28T02:14:02.701Z,74.80
2022-07-28T02:16:31.324Z,74.80
2022-07-28T02:18:59.911Z,75.70
2022-07-28T02:21:28.981Z,75.10
2022-07-28T02:23:57.618Z,75.10
2022-07-28T02:26:33.828Z,75.20
2022-07-28T02:29:02.460Z,75.10
2022-07-28T02:31:31.312Z,75.10
2022-07-28T02:34:02.593Z,75.20
2022-07-28T02:36:36.689Z,75.30
2022-07-28T02:39:08.852Z,75.30
2022-07-28T02:41:40.868Z,75.30
2022-07-28T02:44:16.821Z,75.40
2022-07-28T02:46:47.414Z,75.40
2022-07-28T02:49:21.277Z,75.40
2022-07-28T02:51:49.320Z,75.40
2022-07-28T02:54:17.562Z,75.50
2022-07-28T02:56:53.118Z,75.50
2022-07-28T02:59:21.161Z,75.40
2022-07-28T03:01:49.143Z,75.50
2022-07-28T03:04:16.923Z,75.50
2022-07-28T03:06:43.429Z,75.60
2022-07-28T03:09:09.935Z,75.80
2022-07-28T03:11:36.235Z,76.10
2022-07-28T03:14:02.473Z,76.20
2022-07-28T03:16:28.630Z,76.40
2022-07-28T03:18:55.895Z,76.60
2022-07-28T03:21:22.064Z,76.70
2022-07-28T03:23:50.854Z,76.90
2022-07-28T03:26:34.876Z,77.00
2022-07-28T03:29:02.064Z,77.20
2022-07-28T03:31:29.861Z,77.70
2022-07-28T03:33:56.356Z,77.20
2022-07-28T03:36:30.335Z,77.20
2022-07-28T03:39:05.734Z,77.30
2022-07-28T03:41:33.564Z,77.30
2022-07-28T03:44:01.943Z,77.30
2022-07-28T03:46:28.411Z,77.20
2022-07-28T03:48:55.245Z,77.10
2022-07-28T03:51:21.444Z,77.10
2022-07-28T03:53:48.978Z,77.30
2022-07-28T03:56:15.077Z,77.20
2022-07-28T03:58:41.233Z,77.10
2022-07-28T04:01:07.448Z,77.30
2022-07-28T04:03:36.638Z,77.30
2022-07-28T04:06:10.108Z,77.30
2022-07-28T04:08:36.171Z,77.40
2022-07-28T04:11:02.321Z,77.40
2022-07-28T04:13:31.214Z,77.50
2022-07-28T04:15:58.056Z,77.40
2022-07-28T04:18:24.141Z,77.30
2022-07-28T04:20:50.223Z,77.30
2022-07-28T04:23:18.131Z,77.30
2022-07-28T04:25:44.561Z,77.20
2022-07-28T04:28:11.067Z,77.20
2022-07-28T04:30:39.548Z,77.10
2022-07-28T04:33:10.654Z,77.20
2022-07-28T04:35:37.360Z,77.00
2022-07-28T04:38:03.464Z,76.80
2022-07-28T04:40:29.538Z,76.80
2022-07-28T04:42:55.731Z,76.70
2022-07-28T04:45:21.933Z,76.80
2022-07-28T04:47:48.020Z,76.90
2022-07-28T04:50:20.272Z,76.70
2022-07-28T04:52:49.490Z,76.80
2022-07-28T04:55:16.849Z,76.70
2022-07-28T04:57:43.150Z,76.50
2022-07-28T05:00:13.917Z,76.50
2022-07-28T05:02:41.474Z,76.70
2022-07-28T05:06:19.761Z,76.70
2022-07-28T05:08:45.894Z,76.70
2022-07-28T05:11:11.991Z,76.40
2022-07-28T05:14:34.271Z,76.60
2022-07-28T05:17:00.715Z,76.80
2022-07-28T05:19:27.030Z,76.60
2022-07-28T05:21:53.121Z,76.70
2022-07-28T05:24:19.170Z,76.60
2022-07-28T05:26:45.278Z,76.40
2022-07-28T05:29:37.634Z,76.20
2022-07-28T05:32:17.109Z,75.90
2022-07-28T05:34:46.914Z,75.60
2022-07-28T05:37:12.986Z,75.70
2022-07-28T05:39:39.351Z,75.40
2022-07-28T05:42:05.686Z,74.80
2022-07-28T05:49:48.825Z,73.90
2022-07-28T05:52:15.541Z,72.60
2022-07-28T05:54:41.624Z,72.20
2022-07-28T05:57:07.697Z,70.80
2022-07-28T05:59:41.441Z,69.70
2022-07-28T06:02:10.392Z,68.30
2022-07-28T06:04:37.109Z,66.50
2022-07-28T06:07:03.285Z,64.00
2022-07-28T06:09:29.786Z,62.60
2022-07-28T06:11:55.861Z,62.10
2022-07-28T06:14:21.971Z,61.50
2022-07-28T06:16:50.346Z,61.00
2022-07-28T06:19:17.364Z,61.20
2022-07-28T06:21:43.580Z,61.20
2022-07-28T06:24:09.786Z,61.70
2022-07-28T06:26:40.921Z,61.90
2022-07-28T06:29:10.736Z,61.50
2022-07-28T06:31:37.011Z,61.60
2022-07-28T06:34:03.131Z,60.90
2022-07-28T06:36:29.233Z,60.70
2022-07-28T06:38:55.637Z,60.30
2022-07-28T06:41:22.069Z,59.90
2022-07-28T06:43:48.153Z,59.70
2022-07-28T06:46:17.998Z,59.40
2022-07-28T06:48:45.354Z,59.50
2022-07-28T06:51:12.249Z,59.90
2022-07-28T06:57:34.089Z,58.60
2022-07-28T07:00:06.270Z,57.90
2022-07-28T07:02:33.216Z,57.70
2022-07-28T07:04:59.584Z,57.50
2022-07-28T07:07:43.545Z,57.10
2022-07-28T07:10:10.498Z,55.70
2022-07-28T07:12:36.921Z,54.90
2022-07-28T07:15:07.199Z,53.20
2022-07-28T07:17:47.811Z,53.50
2022-07-28T07:20:14.313Z,52.60
2022-07-28T07:22:45.574Z,50.80
2022-07-28T07:25:14.367Z,50.10
2022-07-28T07:27:40.939Z,48.70
2022-07-28T07:30:09.080Z,49.90
2022-07-28T07:32:35.902Z,50.50
2022-07-28T07:35:02.411Z,49.30
2022-07-28T07:37:31.978Z,48.00
2022-07-28T07:40:02.238Z,47.80
2022-07-28T07:42:28.486Z,47.10
2022-07-28T07:44:55.005Z,46.80
2022-07-28T07:47:21.194Z,47.20
2022-07-28T07:49:47.567Z,46.70
2022-07-28T07:52:14.416Z,45.90
2022-07-28T07:54:41.143Z,43.60
2022-07-28T07:57:07.590Z,41.70
2022-07-28T07:59:34.142Z,41.60
2022-07-28T08:02:00.834Z,40.70
2022-07-28T08:04:27.264Z,40.00
2022-07-28T08:06:55.101Z,39.00
2022-07-28T08:09:21.826Z,38.80
2022-07-28T08:11:48.016Z,39.50
2022-07-28T08:14:14.538Z,38.30
2022-07-28T08:16:41.261Z,37.90
2022-07-28T08:19:07.515Z,37.50
2022-07-28T08:21:35.171Z,36.30
2022-07-28T08:24:01.443Z,36.00
2022-07-28T08:26:29.267Z,36.50
2022-07-28T08:28:55.745Z,35.40
2022-07-28T08:31:22.122Z,34.80
2022-07-28T08:33:53.415Z,34.20
2022-07-28T08:36:21.759Z,34.30
2022-07-28T08:38:47.894Z,33.00
2022-07-28T08:41:21.890Z,33.40
2022-07-28T08:43:51.934Z,33.80
2022-07-28T08:46:20.645Z,32.80
2022-07-28T08:48:47.667Z,32.90
2022-07-28T08:51:14.917Z,32.50
2022-07-28T08:53:42.267Z,31.80
2022-07-28T08:56:13.937Z,32.70
2022-07-28T08:58:40.125Z,32.10
2022-07-28T09:01:07.998Z,31.80
2022-07-28T09:03:35.421Z,30.60
2022-07-28T09:06:01.898Z,31.20
2022-07-28T09:08:28.014Z,32.80
2022-07-28T09:10:54.929Z,33.30
2022-07-28T09:13:21.614Z,33.60
2022-07-28T09:15:48.293Z,32.50
2022-07-28T09:18:18.227Z,32.50
2022-07-28T09:20:45.308Z,31.10
2022-07-28T09:23:42.538Z,31.20
2022-07-28T09:26:12.051Z,30.00
2022-07-28T09:28:53.492Z,29.20
2022-07-28T09:31:21.848Z,29.50
2022-07-28T09:34:04.616Z,29.80
2022-07-28T09:36:39.064Z,29.20
2022-07-28T09:39:05.971Z,28.20
2022-07-28T09:42:07.857Z,28.00
2022-07-28T09:44:34.043Z,28.10
2022-07-28T09:47:00.438Z,28.50
2022-07-28T09:49:41.599Z,27.70
2022-07-28T09:52:09.258Z,28.20
2022-07-28T09:54:40.519Z,29.40
2022-07-28T09:57:10.302Z,28.60
2022-07-28T09:59:41.809Z,27.90
2022-07-28T10:02:10.803Z,28.60
2022-07-28T10:04:41.205Z,29.30
2022-07-28T10:07:10.577Z,29.60
2022-07-28T10:09:38.209Z,29.00
2022-07-28T10:12:22.659Z,29.50
2022-07-28T10:14:51.079Z,28.30
2022-07-28T10:17:28.706Z,28.50
2022-07-28T10:19:59.419Z,27.90
2022-07-28T10:22:28.156Z,28.00
2022-07-28T10:24:55.955Z,27.90
2022-07-28T10:27:25.387Z,28.00
2022-07-28T10:29:57.261Z,27.80
2022-07-28T10:32:23.549Z,27.70
2022-07-28T10:35:07.853Z,26.50
2022-07-28T10:37:53.726Z,26.90
2022-07-28T10:40:25.940Z,27.10
2022-07-28T10:42:53.316Z,26.50
2022-07-28T10:45:20.125Z,27.30
2022-07-28T10:47:47.310Z,27.30
2022-07-28T10:50:15.544Z,26.40
2022-07-28T10:52:52.508Z,26.80
2022-07-28T10:55:41.255Z,27.30
2022-07-28T10:58:24.976Z,27.00
2022-07-28T11:00:58.290Z,25.70
2022-07-28T11:03:39.770Z,25.20
2022-07-28T11:06:28.381Z,25.70
2022-07-28T11:09:00.304Z,25.70
2022-07-28T11:11:57.152Z,25.60
2022-07-28T11:14:26.340Z,25.90
2022-07-28T11:17:14.585Z,26.20
2022-07-28T11:20:00.777Z,25.60
2022-07-28T11:22:32.004Z,25.60
2022-07-28T11:24:59.243Z,25.70
2022-07-28T11:27:45.495Z,24.90
2022-07-28T11:30:28.024Z,25.30
2022-07-28T11:32:54.238Z,25.60
2022-07-28T11:35:31.195Z,25.80
2022-07-28T11:38:00.570Z,26.00
2022-07-28T11:40:39.936Z,25.60
2022-07-28T11:43:36.228Z,26.00
2022-07-28T11:46:10.027Z,25.70
2022-07-28T11:48:38.328Z,25.40
2022-07-28T11:51:09.597Z,26.00
2022-07-28T11:53:36.284Z,26.30
2022-07-28T11:56:04.532Z,25.70
2022-07-28T11:58:37.731Z,25.60
2022-07-28T12:01:18.204Z,25.40
2022-07-28T12:03:49.599Z,25.00
2022-07-28T12:06:29.050Z,25.60
2022-07-28T12:09:05.056Z,25.90
2022-07-28T12:11:33.425Z,26.10
2022-07-28T12:14:10.072Z,26.00
2022-07-28T12:16:38.626Z,26.00
2022-07-28T12:19:07.350Z,26.00
2022-07-28T12:21:46.370Z,25.30
2022-07-28T12:24:45.413Z,25.50
2022-07-28T12:27:13.352Z,26.10
2022-07-28T12:29:39.625Z,26.40
2022-07-28T12:32:09.162Z,27.20
2022-07-28T12:34:37.090Z,27.00
2022-07-28T12:37:06.094Z,27.30
2022-07-28T12:39:36.141Z,27.30
2022-07-28T12:42:12.427Z,26.20
2022-07-28T12:44:43.849Z,27.20
2022-07-28T12:47:11.667Z,27.60
2022-07-28T12:49:39.277Z,26.90
2022-07-28T12:52:23.191Z,27.00
2022-07-28T12:54:53.589Z,26.90
2022-07-28T12:57:50.460Z,26.40
2022-07-28T13:00:20.141Z,27.00
2022-07-28T13:02:47.852Z,26.70
2022-07-28T13:05:30.308Z,26.20
2022-07-28T13:08:02.233Z,25.80
2022-07-28T13:10:29.824Z,26.20
2022-07-28T13:13:04.926Z,26.60
2022-07-28T13:15:31.310Z,27.20
2022-07-28T13:17:58.517Z,27.00
2022-07-28T13:20:25.752Z,27.20
2022-07-28T13:22:53.445Z,27.50
2022-07-28T13:25:20.609Z,27.20
2022-07-28T13:27:52.272Z,26.80
2022-07-28T13:30:21.147Z,26.80
2022-07-28T13:32:48.943Z,26.90
2022-07-28T13:35:15.776Z,27.20
2022-07-28T13:37:45.158Z,27.00
2022-07-28T13:40:11.880Z,27.40
2022-07-28T13:42:37.991Z,27.20
2022-07-28T13:45:05.274Z,27.20
2022-07-28T13:47:38.983Z,27.50
2022-07-28T13:50:06.595Z,27.40
2022-07-28T13:52:35.224Z,27.10
2022-07-28T13:55:06.368Z,28.40
2022-07-28T13:57:35.845Z,27.80
2022-07-28T14:00:08.297Z,28.00
2022-07-28T14:02:35.230Z,28.30
2022-07-28T14:05:01.897Z,28.50
2022-07-28T14:07:28.137Z,28.50
2022-07-28T14:09:54.737Z,27.60
2022-07-28T14:12:21.007Z,27.70
2022-07-28T14:14:48.651Z,29.00
2022-07-28T14:17:42.805Z,28.70
2022-07-28T14:20:09.509Z,29.20
2022-07-28T14:22:35.719Z,29.90
2022-07-28T14:25:02.171Z,30.00
2022-07-28T14:27:29.327Z,31.40
2022-07-28T14:29:55.918Z,30.90
2022-07-28T14:32:22.522Z,30.00
2022-07-28T14:34:48.724Z,29.70
2022-07-28T14:37:14.790Z,30.90
2022-07-28T14:39:41.788Z,30.80
2022-07-28T14:42:10.106Z,32.50
2022-07-28T14:44:36.492Z,32.50
2022-07-28T14:47:03.274Z,32.70
2022-07-28T14:49:37.504Z,32.60
2022-07-28T14:52:26.174Z,33.20
2022-07-28T14:58:23.108Z,33.10
2022-07-28T15:00:59.936Z,33.20
2022-07-28T15:03:31.740Z,33.80
2022-07-28T15:06:02.360Z,33.50
2022-07-28T15:08:29.218Z,34.30
2022-07-28T15:10:55.776Z,33.80
2022-07-28T15:13:22.943Z,34.40
2022-07-28T15:15:49.520Z,34.30
2022-07-28T15:18:15.621Z,34.80
2022-07-28T15:20:44.237Z,35.40
2022-07-28T15:23:15.586Z,35.30
2022-07-28T15:25:43.591Z,35.70
2022-07-28T15:28:10.079Z,35.90
2022-07-28T15:30:52.996Z,34.90
2022-07-28T15:33:20.637Z,35.10
2022-07-28T15:35:59.419Z,35.00
2022-07-28T15:38:29.131Z,35.00
2022-07-28T15:40:57.964Z,34.90
2022-07-28T15:43:24.262Z,35.50
2022-07-28T15:45:50.524Z,36.20
2022-07-28T15:48:16.810Z,36.20
2022-07-28T15:50:47.764Z,36.40
2022-07-28T15:53:14.226Z,35.90
2022-07-28T15:55:40.670Z,36.00
2022-07-28T15:58:07.247Z,35.60
2022-07-28T16:00:33.692Z,36.30
2022-07-28T16:03:01.038Z,36.30
2022-07-28T16:05:27.573Z,36.40
2022-07-28T16:07:56.631Z,36.80
2022-07-28T16:10:23.766Z,36.60
2022-07-28T16:12:52.140Z,37.10
2022-07-28T16:15:18.424Z,37.00
2022-07-28T16:17:44.745Z,37.10
2022-07-28T16:20:31.644Z,37.20
2022-07-28T16:22:58.727Z,37.60
2022-07-28T16:25:25.168Z,37.20
2022-07-28T16:27:51.950Z,37.00
2022-07-28T16:30:18.802Z,37.70
2022-07-28T16:32:46.239Z,38.10
2022-07-28T16:35:13.351Z,38.20
2022-07-28T16:37:39.990Z,38.20
2022-07-28T16:40:08.301Z,38.70
2022-07-28T16:42:35.123Z,38.90
2022-07-28T16:45:02.773Z,39.10
2022-07-28T16:47:29.137Z,39.60
2022-07-28T16:49:55.453Z,39.60
2022-07-28T16:52:25.032Z,39.30
2022-07-28T16:54:51.665Z,39.60
2022-07-28T16:57:20.654Z,39.70
2022-07-28T16:59:48.053Z,39.90
2022-07-28T17:02:17.362Z,40.30
2022-07-28T17:04:43.578Z,40.20
2022-07-28T17:07:09.925Z,40.50
2022-07-28T17:09:36.082Z,40.50
2022-07-28T17:12:02.247Z,40.30
2022-07-28T17:14:28.648Z,40.90
2022-07-28T17:16:54.785Z,41.20
2022-07-28T17:19:22.142Z,40.40
2022-07-28T17:21:48.512Z,40.80
2022-07-28T17:24:15.108Z,40.40
2022-07-28T17:29:27.777Z,40.80
2022-07-28T17:31:53.889Z,40.80
2022-07-28T17:34:20.026Z,40.90
2022-07-28T17:36:46.978Z,41.20
2022-07-28T17:39:13.521Z,41.80
2022-07-28T17:41:41.026Z,41.40
2022-07-28T17:44:07.392Z,41.60
2022-07-28T17:46:37.422Z,41.60
2022-07-28T17:49:04.955Z,42.10
2022-07-28T17:51:31.310Z,41.90
2022-07-28T17:53:57.789Z,42.60
2022-07-28T17:56:24.666Z,42.40
2022-07-28T17:58:52.213Z,42.70
2022-07-28T18:01:18.778Z,42.70
2022-07-28T18:03:58.203Z,43.80
2022-07-28T18:06:31.304Z,43.50
2022-07-28T18:09:02.758Z,43.10
2022-07-28T18:11:56.054Z,44.10
2022-07-28T18:14:26.193Z,44.10
2022-07-28T18:16:52.355Z,44.50
2022-07-28T18:19:18.478Z,44.70
2022-07-28T18:21:44.713Z,44.60
2022-07-28T18:24:10.803Z,45.10
2022-07-28T18:26:36.954Z,45.40
2022-07-28T18:29:05.178Z,45.30
2022-07-28T18:31:31.760Z,45.40
2022-07-28T18:33:57.890Z,45.70
2022-07-28T18:36:24.358Z,46.60
2022-07-28T18:38:51.491Z,46.30
2022-07-28T18:41:17.554Z,46.40
2022-07-28T18:43:43.669Z,46.70
2022-07-28T18:46:09.874Z,46.70
2022-07-28T18:48:36.102Z,46.70
2022-07-28T18:51:02.478Z,47.20
2022-07-28T18:53:28.891Z,48.10
2022-07-28T18:55:55.079Z,47.50
2022-07-28T18:58:21.320Z,47.80
2022-07-28T19:00:48.211Z,47.80
2022-07-28T19:03:14.634Z,48.10
2022-07-28T19:05:45.624Z,48.20
2022-07-28T19:08:12.354Z,48.40
2022-07-28T19:10:38.718Z,48.50
2022-07-28T19:13:05.289Z,48.70
2022-07-28T19:15:35.530Z,49.10
2022-07-28T19:18:10.274Z,49.10
2022-07-28T19:20:39.195Z,49.60
2022-07-28T19:23:06.348Z,50.30
2022-07-28T19:25:35.040Z,51.30
2022-07-28T19:28:01.163Z,50.70
2022-07-28T19:30:29.626Z,52.00
2022-07-28T19:33:06.314Z,52.10
2022-07-28T19:35:33.102Z,52.50
2022-07-28T19:38:00.403Z,53.00
2022-07-28T19:40:31.235Z,53.00
2022-07-28T19:43:00.275Z,52.40
2022-07-28T19:45:26.773Z,52.80
2022-07-28T19:47:54.040Z,53.40
2022-07-28T19:50:31.835Z,53.80
2022-07-28T19:52:58.367Z,53.70
2022-07-28T19:55:26.364Z,53.20
2022-07-28T19:57:54.555Z,54.30
2022-07-28T20:00:21.509Z,54.00
2022-07-28T20:02:48.104Z,54.10
2022-07-28T20:05:14.985Z,53.90
2022-07-28T20:07:41.778Z,54.80
2022-07-28T20:10:08.226Z,55.40
2022-07-28T20:12:36.636Z,55.60
2022-07-28T20:15:07.670Z,55.40
2022-07-28T20:17:39.479Z,55.50
2022-07-28T20:20:07.693Z,55.30
2022-07-28T20:22:34.653Z,55.70
2022-07-28T20:25:01.054Z,55.90
2022-07-28T20:27:27.615Z,55.40
2022-07-28T20:29:53.991Z,55.70
2022-07-28T20:32:21.034Z,55.80
2022-07-28T20:34:47.452Z,56.10
2022-07-28T20:37:19.108Z,56.30
2022-07-28T20:40:02.092Z,56.10
2022-07-28T20:42:28.839Z,56.60
2022-07-28T20:44:55.403Z,56.90
2022-07-28T20:47:22.641Z,56.90
2022-07-28T20:49:48.945Z,57.10
2022-07-28T20:52:15.015Z,57.60
2022-07-28T20:54:41.089Z,57.90
2022-07-28T20:57:07.307Z,58.00
2022-07-28T20:59:33.444Z,58.20
2022-07-28T21:01:59.714Z,58.50
2022-07-28T21:04:25.893Z,58.10
2022-07-28T21:06:55.270Z,58.80
2022-07-28T21:09:27.130Z,58.40
2022-07-28T21:11:54.154Z,58.50
2022-07-28T21:14:20.244Z,58.80
2022-07-28T21:16:46.987Z,58.90
2022-07-28T21:19:13.143Z,59.00
2022-07-28T21:21:39.245Z,59.40
2022-07-28T21:24:06.194Z,59.60
2022-07-28T21:26:33.617Z,59.60
2022-07-28T21:29:12.422Z,59.60
2022-07-28T21:32:02.173Z,60.00
2022-07-28T21:34:26.529Z,59.80
2022-07-28T21:36:52.939Z,60.20
2022-07-28T21:39:19.082Z,60.90
2022-07-28T21:41:45.228Z,60.60
2022-07-28T21:44:12.323Z,60.80
2022-07-28T21:46:39.010Z,61.20
2022-07-28T21:49:05.740Z,61.40
2022-07-28T21:51:31.878Z,61.60
2022-07-28T21:53:59.583Z,61.70
2022-07-28T21:56:26.936Z,61.90
2022-07-28T21:58:53.472Z,62.00
2022-07-28T22:01:19.553Z,62.10
2022-07-28T22:03:45.682Z,62.10
2022-07-28T22:06:11.805Z,63.00
2022-07-28T22:08:38.795Z,62.30
2022-07-28T22:11:05.854Z,62.80
2022-07-28T22:13:32.189Z,62.80
2022-07-28T22:15:58.297Z,63.00
2022-07-28T22:18:25.071Z,63.00
2022-07-28T22:20:52.172Z,62.70
2022-07-28T22:23:29.820Z,62.80
2022-07-28T22:25:56.339Z,63.20
2022-07-28T22:28:29.596Z,63.50
2022-07-28T22:30:56.432Z,63.30
2022-07-28T22:33:22.465Z,63.10
2022-07-28T22:35:48.654Z,63.10
2022-07-28T22:38:14.817Z,63.30
2022-07-28T22:40:41.750Z,63.00
2022-07-28T22:43:08.468Z,63.20
2022-07-28T22:45:50.165Z,63.50
2022-07-28T22:48:18.398Z,63.60
2022-07-28T22:50:44.547Z,63.40
2022-07-28T22:53:10.722Z,63.40
2022-07-28T22:58:21.249Z,63.60
2022-07-28T23:00:47.403Z,63.70
2022-07-28T23:03:15.918Z,63.90
2022-07-28T23:05:42.124Z,64.00
2022-07-28T23:08:08.332Z,64.20
2022-07-28T23:10:36.898Z,64.20
2022-07-28T23:13:03.408Z,64.30
2022-07-28T23:15:40.533Z,64.40
2022-07-28T23:18:09.457Z,64.30
2022-07-28T23:20:36.069Z,64.40
2022-07-28T23:23:02.507Z,64.20
2022-07-28T23:25:28.670Z,64.60
2022-07-28T23:27:54.770Z,64.80
2022-07-28T23:30:21.022Z,65.00
2022-07-28T23:32:49.401Z,65.10
2022-07-28T23:35:15.631Z,65.00
2022-07-28T23:37:41.708Z,65.10
2022-07-28T23:40:08.481Z,65.40
2022-07-28T23:42:34.682Z,65.30
2022-07-28T23:45:02.674Z,65.60
2022-07-28T23:47:28.815Z,65.50
2022-07-28T23:49:56.086Z,66.40
2022-07-28T23:52:22.345Z,65.90
2022-07-28T23:54:48.520Z,66.10
2022-07-28T23:57:14.894Z,66.10
2022-07-28T23:59:41.026Z,66.10
